<?xml version="1.0" encoding="UTF-8" standalone="no" ?>
<gpx xmlns="http://www.topografix.com/GPX/1/1" xmlns:xsi="http://www.w3.org/2001/XMLSchema-instance" xsi:schemaLocation="http://www.topografix.com/GPX/1/1 http://www.topografix.com/GPX/1/1/gpx.xsd" version="1.1" creator="VisuGPX - https://www.visugpx.com">
  <metadata>
    <name>La Chapelle Mijoux</name>
  </metadata>
  <trk>
    <name><![CDATA[La Chapelle Mijoux]]></name>
    <trkseg>
      <trkpt lat="46.83527" lon="6.40083">
        <ele>1082</ele>
        <time>2021-11-19T18:31:43+01:00</time>
      </trkpt>
      <trkpt lat="46.83475" lon="6.40057">
        <ele>1084</ele>
        <time>2021-11-19T18:31:48+01:00</time>
      </trkpt>
      <trkpt lat="46.83445" lon="6.40066">
        <ele>1085</ele>
        <time>2021-11-19T18:31:53+01:00</time>
      </trkpt>
      <trkpt lat="46.8341" lon="6.39826">
        <ele>1088</ele>
        <time>2021-11-19T18:31:58+01:00</time>
      </trkpt>
      <trkpt lat="46.83416" lon="6.39577">
        <ele>1085</ele>
        <time>2021-11-19T18:32:03+01:00</time>
      </trkpt>
      <trkpt lat="46.83416" lon="6.39504">
        <ele>1085</ele>
        <time>2021-11-19T18:32:08+01:00</time>
      </trkpt>
      <trkpt lat="46.83433" lon="6.39409">
        <ele>1085</ele>
        <time>2021-11-19T18:32:13+01:00</time>
      </trkpt>
      <trkpt lat="46.83422" lon="6.39264">
        <ele>1088</ele>
        <time>2021-11-19T18:32:18+01:00</time>
      </trkpt>
      <trkpt lat="46.83466" lon="6.39066">
        <ele>1089</ele>
        <time>2021-11-19T18:32:23+01:00</time>
      </trkpt>
      <trkpt lat="46.83378" lon="6.38706">
        <ele>1084</ele>
        <time>2021-11-19T18:32:28+01:00</time>
      </trkpt>
      <trkpt lat="46.83342" lon="6.38384">
        <ele>1080</ele>
        <time>2021-11-19T18:32:33+01:00</time>
      </trkpt>
      <trkpt lat="46.83243" lon="6.38195">
        <ele>1073</ele>
        <time>2021-11-19T18:32:38+01:00</time>
      </trkpt>
      <trkpt lat="46.8316" lon="6.37998">
        <ele>1070</ele>
        <time>2021-11-19T18:32:43+01:00</time>
      </trkpt>
      <trkpt lat="46.83248" lon="6.37985">
        <ele>1069</ele>
        <time>2021-11-19T18:32:48+01:00</time>
      </trkpt>
      <trkpt lat="46.83096" lon="6.37603">
        <ele>1059</ele>
        <time>2021-11-19T18:32:53+01:00</time>
      </trkpt>
      <trkpt lat="46.83134" lon="6.3756">
        <ele>1055</ele>
        <time>2021-11-19T18:32:58+01:00</time>
      </trkpt>
      <trkpt lat="46.83234" lon="6.37495">
        <ele>1056</ele>
        <time>2021-11-19T18:33:03+01:00</time>
      </trkpt>
      <trkpt lat="46.83301" lon="6.37431">
        <ele>1044</ele>
        <time>2021-11-19T18:33:08+01:00</time>
      </trkpt>
      <trkpt lat="46.83351" lon="6.37328">
        <ele>1033</ele>
        <time>2021-11-19T18:33:13+01:00</time>
      </trkpt>
      <trkpt lat="46.83495" lon="6.37307">
        <ele>1020</ele>
        <time>2021-11-19T18:33:18+01:00</time>
      </trkpt>
      <trkpt lat="46.83598" lon="6.37298">
        <ele>1017</ele>
        <time>2021-11-19T18:33:23+01:00</time>
      </trkpt>
      <trkpt lat="46.83604" lon="6.37161">
        <ele>1001</ele>
        <time>2021-11-19T18:33:28+01:00</time>
      </trkpt>
      <trkpt lat="46.83551" lon="6.37071">
        <ele>996</ele>
        <time>2021-11-19T18:33:33+01:00</time>
      </trkpt>
      <trkpt lat="46.83527" lon="6.37105">
        <ele>999</ele>
        <time>2021-11-19T18:33:38+01:00</time>
      </trkpt>
      <trkpt lat="46.83475" lon="6.37062">
        <ele>996</ele>
        <time>2021-11-19T18:33:43+01:00</time>
      </trkpt>
      <trkpt lat="46.83345" lon="6.37041">
        <ele>1006</ele>
        <time>2021-11-19T18:33:48+01:00</time>
      </trkpt>
      <trkpt lat="46.83293" lon="6.37015">
        <ele>1009</ele>
        <time>2021-11-19T18:33:53+01:00</time>
      </trkpt>
      <trkpt lat="46.8321" lon="6.36976">
        <ele>1011</ele>
        <time>2021-11-19T18:33:58+01:00</time>
      </trkpt>
      <trkpt lat="46.83128" lon="6.36989">
        <ele>1017</ele>
        <time>2021-11-19T18:34:03+01:00</time>
      </trkpt>
      <trkpt lat="46.83028" lon="6.37002">
        <ele>1024</ele>
        <time>2021-11-19T18:34:08+01:00</time>
      </trkpt>
      <trkpt lat="46.82928" lon="6.37113">
        <ele>1033</ele>
        <time>2021-11-19T18:34:13+01:00</time>
      </trkpt>
      <trkpt lat="46.8284" lon="6.37156">
        <ele>1034</ele>
        <time>2021-11-19T18:34:18+01:00</time>
      </trkpt>
      <trkpt lat="46.8277" lon="6.37208">
        <ele>1038</ele>
        <time>2021-11-19T18:34:23+01:00</time>
      </trkpt>
      <trkpt lat="46.82694" lon="6.37315">
        <ele>1051</ele>
        <time>2021-11-19T18:34:28+01:00</time>
      </trkpt>
      <trkpt lat="46.82635" lon="6.37504">
        <ele>1071</ele>
        <time>2021-11-19T18:34:33+01:00</time>
      </trkpt>
      <trkpt lat="46.82638" lon="6.37556">
        <ele>1072</ele>
        <time>2021-11-19T18:34:38+01:00</time>
      </trkpt>
      <trkpt lat="46.8267" lon="6.37607">
        <ele>1073</ele>
        <time>2021-11-19T18:34:43+01:00</time>
      </trkpt>
      <trkpt lat="46.82667" lon="6.37671">
        <ele>1075</ele>
        <time>2021-11-19T18:34:48+01:00</time>
      </trkpt>
      <trkpt lat="46.82691" lon="6.37727">
        <ele>1076</ele>
        <time>2021-11-19T18:34:53+01:00</time>
      </trkpt>
      <trkpt lat="46.82717" lon="6.37727">
        <ele>1075</ele>
        <time>2021-11-19T18:34:58+01:00</time>
      </trkpt>
      <trkpt lat="46.82785" lon="6.37826">
        <ele>1076</ele>
        <time>2021-11-19T18:35:03+01:00</time>
      </trkpt>
      <trkpt lat="46.82779" lon="6.37873">
        <ele>1079</ele>
        <time>2021-11-19T18:35:08+01:00</time>
      </trkpt>
      <trkpt lat="46.82811" lon="6.3789">
        <ele>1078</ele>
        <time>2021-11-19T18:35:13+01:00</time>
      </trkpt>
      <trkpt lat="46.82767" lon="6.38045">
        <ele>1090</ele>
        <time>2021-11-19T18:35:18+01:00</time>
      </trkpt>
      <trkpt lat="46.82752" lon="6.38204">
        <ele>1094</ele>
        <time>2021-11-19T18:35:23+01:00</time>
      </trkpt>
      <trkpt lat="46.82887" lon="6.38345">
        <ele>1100</ele>
        <time>2021-11-19T18:35:28+01:00</time>
      </trkpt>
      <trkpt lat="46.82975" lon="6.38431">
        <ele>1092</ele>
        <time>2021-11-19T18:35:33+01:00</time>
      </trkpt>
      <trkpt lat="46.83002" lon="6.38487">
        <ele>1089</ele>
        <time>2021-11-19T18:35:38+01:00</time>
      </trkpt>
      <trkpt lat="46.8304" lon="6.38534">
        <ele>1087</ele>
        <time>2021-11-19T18:35:43+01:00</time>
      </trkpt>
      <trkpt lat="46.83093" lon="6.38555">
        <ele>1083</ele>
        <time>2021-11-19T18:35:48+01:00</time>
      </trkpt>
      <trkpt lat="46.83105" lon="6.38667">
        <ele>1083</ele>
        <time>2021-11-19T18:35:53+01:00</time>
      </trkpt>
      <trkpt lat="46.83058" lon="6.38813">
        <ele>1087</ele>
        <time>2021-11-19T18:35:58+01:00</time>
      </trkpt>
      <trkpt lat="46.82999" lon="6.39028">
        <ele>1088</ele>
        <time>2021-11-19T18:36:03+01:00</time>
      </trkpt>
      <trkpt lat="46.82961" lon="6.39178">
        <ele>1089</ele>
        <time>2021-11-19T18:36:08+01:00</time>
      </trkpt>
      <trkpt lat="46.82975" lon="6.39272">
        <ele>1089</ele>
        <time>2021-11-19T18:36:13+01:00</time>
      </trkpt>
      <trkpt lat="46.83075" lon="6.39345">
        <ele>1087</ele>
        <time>2021-11-19T18:36:18+01:00</time>
      </trkpt>
      <trkpt lat="46.83213" lon="6.39611">
        <ele>1085</ele>
        <time>2021-11-19T18:36:23+01:00</time>
      </trkpt>
      <trkpt lat="46.83301" lon="6.3977">
        <ele>1085</ele>
        <time>2021-11-19T18:36:28+01:00</time>
      </trkpt>
      <trkpt lat="46.83404" lon="6.3983">
        <ele>1089</ele>
        <time>2021-11-19T18:36:33+01:00</time>
      </trkpt>
      <trkpt lat="46.83436" lon="6.39967">
        <ele>1087</ele>
        <time>2021-11-19T18:36:38+01:00</time>
      </trkpt>
      <trkpt lat="46.83436" lon="6.40079">
        <ele>1085</ele>
        <time>2021-11-19T18:36:43+01:00</time>
      </trkpt>
      <trkpt lat="46.83501" lon="6.40135">
        <ele>1083</ele>
        <time>2021-11-19T18:36:48+01:00</time>
      </trkpt>
      <trkpt lat="46.83519" lon="6.40075">
        <ele>1082</ele>
        <time>2021-11-19T18:36:53+01:00</time>
      </trkpt>
      <trkpt lat="46.83519" lon="6.40083">
        <ele>1082</ele>
        <time>2021-11-19T18:36:58+01:00</time>
      </trkpt>
    </trkseg>
  </trk>
</gpx>